Latest Weather Observations for Centre Island

IDD60801

Issued at 4:31 pm CST Monday 27 April 2015 (issued every 30 minutes, with the page automatically refreshed every 10 minutes)

About weather observations | Map of weather stations | Latest weather observations for NT | Other Formats
Station Details ID: 014703 Name: CENTRE ISLAND Lat: -15.74 Lon: 136.82 Height: 12.2 m
Data from the previous 72 hours. | See also: Recent months at Centre Island
Date/Time
CST
Temp
°C
App
Temp
°C
Dew
Point
Rel
Hum
%
Delta-T
°C
Wind Press
QNH
hPa
Press
MSL
hPa
Rain
since 9 am
mm
Dir
 
Spd
km/h
Gust
km/h
Spd
kts
Gust
kts
27/04:30pm 28.8 26.5 14.6 42 8.6 E 20 28 11 15 1012.5 1012.4 0.0
27/04:00pm 29.3 26.2 13.5 38 9.4 E 22 28 12 15 1012.5 1012.4 0.0
27/03:30pm 29.8 26.6 13.1 36 9.9 E 22 28 12 15 1012.4 1012.3 0.0
27/03:00pm 29.5 25.6 13.3 37 9.6 E 26 32 14 17 1012.6 1012.5 0.0
27/02:30pm 29.8 25.2 10.9 31 10.8 E 26 33 14 18 1012.6 1012.5 0.0
27/02:00pm 29.3 24.9 11.8 34 10.2 E 26 32 14 17 1013.0 1012.9 0.0
27/01:30pm 29.1 24.6 12.5 36 9.7 ESE 28 33 15 18 1013.3 1013.2 0.0
27/01:00pm 29.1 23.8 9.8 30 10.8 ESE 28 33 15 18 1013.7 1013.6 0.0
27/12:30pm 28.2 22.4 10.9 34 9.8 ESE 32 37 17 20 1014.2 1014.1 0.0
27/12:00pm 27.5 20.6 10.2 34 9.7 ESE 37 44 20 24 1014.7 1014.6 0.0
27/11:30am 27.3 19.5 9.6 33 9.8 ESE 41 48 22 26 1015.1 1015.0 0.0
27/11:00am 26.8 18.6 10.5 36 9.1 ESE 44 52 24 28 1015.4 1015.3 0.0
27/10:30am 26.3 17.4 9.2 34 9.4 ESE 46 57 25 31 1015.6 1015.5 0.0
27/10:00am 26.1 17.5 9.0 34 9.3 ESE 44 56 24 30 1015.7 1015.6 0.0
27/09:53am 25.9 19.9 10.9 39 8.4 ESE 33 50 18 27 1015.8 1015.7 0.0
27/09:30am 24.3 19.0 8.3 36 8.5 SE 26 32 14 17 1015.9 1015.8 0.0
27/09:00am 23.6 18.1 9.2 40 7.8 SE 28 35 15 19 1015.9 1015.8 0.0
27/08:30am 22.9 16.7 9.3 42 7.3 SE 32 37 17 20 1015.9 1015.8 0.0
27/08:00am 22.5 16.7 9.3 43 7.1 SE 30 39 16 21 1015.7 1015.6 0.0
27/07:30am 22.3 16.1 9.5 44 6.9 SSE 32 37 17 20 1015.4 1015.3 0.0
27/07:00am 21.8 15.7 9.7 46 6.5 SSE 32 37 17 20 1015.1 1015.0 0.0
27/06:30am 21.4 15.4 8.7 44 6.7 SSE 30 35 16 19 1014.8 1014.7 0.0
27/06:00am 21.8 15.9 9.0 44 6.8 SSE 30 35 16 19 1014.3 1014.2 0.0
27/05:30am 21.9 15.8 9.8 46 6.5 SSE 32 35 17 19 1014.0 1013.9 0.0
27/05:00am 21.9 16.7 10.1 47 6.4 SSE 28 33 15 18 1013.9 1013.8 0.0
27/04:30am 21.9 16.7 10.1 47 6.4 SSE 28 32 15 17 1013.9 1013.8 0.0
27/04:00am 22.2 16.9 9.7 45 6.8 SSE 28 32 15 17 1013.8 1013.7 0.0
27/03:30am 22.2 16.9 10.0 46 6.6 SSE 28 32 15 17 1013.8 1013.7 0.0
27/03:00am 22.8 17.9 11.2 48 6.5 SSE 28 33 15 18 1013.9 1013.8 0.0
27/02:30am 22.8 18.3 11.5 49 6.3 SE 26 30 14 16 1013.9 1013.8 0.0
27/02:00am 23.1 18.0 10.5 45 6.9 SE 28 32 15 17 1014.0 1013.9 0.0
27/01:30am 23.7 19.1 11.1 45 7.0 SE 26 32 14 17 1014.3 1014.2 0.0
27/01:00am 23.9 20.7 13.2 51 6.2 SSE 22 24 12 13 1014.6 1014.5 0.0
27/12:30am 24.1 21.9 14.8 56 5.5 SE 20 22 11 12 1014.9 1014.8 0.0
27/12:00am 24.3 21.6 15.5 58 5.3 SE 24 28 13 15 1014.9 1014.8 0.0
 
Date/Time
CST
Temp
°C
App
Temp
°C
Dew
Point
Rel
Hum
%
Delta-T
°C
Wind Press
QNH
hPa
Press
MSL
hPa
Rain
since 9 am
mm
Dir
 
Spd
km/h
Gust
km/h
Spd
kts
Gust
kts
26/11:30pm 24.2 21.9 15.7 59 5.1 SSE 22 26 12 14 1015.1 1015.0 0.0
26/11:00pm 24.3 22.1 15.0 56 5.6 SSE 20 22 11 12 1015.3 1015.2 0.0
26/10:30pm 24.8 23.6 17.5 64 4.5 SSE 20 24 11 13 1015.4 1015.3 0.0
26/10:00pm 25.0 24.9 18.7 68 4.0 S 17 20 9 11 1015.4 1015.3 0.0
26/09:30pm 25.3 25.6 18.7 67 4.2 SE 15 19 8 10 1015.4 1015.3 0.0
26/09:00pm 25.1 24.6 17.0 60 5.0 ESE 15 17 8 9 1015.2 1015.1 0.0
26/08:30pm 25.0 24.9 17.0 61 5.0 ESE 13 17 7 9 1014.9 1014.8 0.0
26/08:00pm 25.2 24.6 16.6 59 5.3 ESE 15 17 8 9 1014.6 1014.5 0.0
26/07:30pm 25.5 24.3 16.1 56 5.7 E 17 19 9 10 1014.3 1014.2 0.0
26/07:00pm 25.6 24.2 15.6 54 6.1 E 17 20 9 11 1014.0 1013.9 0.0
26/06:30pm 25.9 23.7 15.0 51 6.6 E 20 24 11 13 1013.6 1013.5 0.0
26/06:00pm 26.3 24.7 15.0 49 6.8 E 17 20 9 11 1013.4 1013.3 0.0
26/05:30pm 27.1 25.4 14.8 47 7.4 E 17 20 9 11 1013.2 1013.1 0.0
26/05:00pm 27.9 25.7 14.5 44 8.1 E 19 20 10 11 1013.0 1012.9 0.0
26/04:30pm 28.6 26.2 12.5 37 9.4 E 17 20 9 11 1012.9 1012.8 0.0
26/04:00pm 29.0 27.5 13.2 37 9.4 E 13 17 7 9 1012.8 1012.7 0.0
26/03:30pm 29.0 27.3 12.4 36 9.7 ENE 13 17 7 9 1012.8 1012.7 0.0
26/03:00pm 29.4 27.2 13.2 37 9.6 ENE 17 20 9 11 1012.8 1012.7 0.0
26/02:30pm 29.5 26.9 12.0 34 10.2 ENE 17 20 9 11 1012.9 1012.8 0.0
26/02:00pm 29.4 27.4 11.5 33 10.3 ENE 13 17 7 9 1013.1 1013.0 0.0
26/01:30pm 28.5 25.6 9.7 31 10.5 E 15 19 8 10 1013.4 1013.3 0.0
26/01:00pm 29.0 26.5 11.1 33 10.3 E 15 20 8 11 1013.7 1013.6 0.0
26/12:30pm 28.3 25.1 11.4 35 9.7 ESE 19 22 10 12 1013.9 1013.8 0.0
26/12:00pm 28.5 23.5 9.7 31 10.5 SE 26 30 14 16 1014.3 1014.2 0.0
26/11:30am 28.0 22.8 10.2 33 10.0 SE 28 32 15 17 1014.8 1014.7 0.0
26/10:30am 26.4 20.2 9.3 34 9.4 SE 32 37 17 20 1015.5 1015.4 0.0
26/10:00am 25.6 19.8 9.4 36 8.9 SE 30 35 16 19 1015.8 1015.7 0.0
26/09:30am 24.6 18.2 9.3 38 8.3 SE 33 41 18 22 1015.9 1015.8 0.0
26/09:00am 23.4 17.0 9.4 41 7.6 SSE 33 39 18 21 1015.8 1015.7 0.0
26/08:30am 23.0 16.3 9.8 43 7.2 SSE 35 43 19 23 1015.5 1015.4 0.0
26/08:00am 22.8 16.0 9.2 42 7.3 SSE 35 41 19 22 1015.5 1015.4 0.0
26/07:30am 22.5 16.1 9.3 43 7.1 SSE 33 43 18 23 1015.3 1015.2 0.0
26/07:00am 22.5 15.7 9.3 43 7.1 SSE 35 44 19 24 1014.8 1014.7 0.0
26/06:30am 22.4 15.5 8.9 42 7.2 SSE 35 43 19 23 1014.5 1014.4 0.0
26/06:00am 22.4 15.4 8.5 41 7.4 SSE 35 44 19 24 1014.1 1014.0 0.0
26/05:30am 22.6 15.8 9.4 43 7.1 SSE 35 44 19 24 1013.7 1013.6 0.0
26/05:00am 23.0 16.7 9.8 43 7.2 SSE 33 43 18 23 1013.5 1013.4 0.0
26/04:30am 23.3 16.8 9.0 40 7.7 S 33 41 18 22 1013.3 1013.2 0.0
26/04:00am 23.8 17.2 10.1 42 7.5 SSE 35 44 19 24 1013.1 1013.0 0.0
26/03:30am 24.1 17.7 10.7 43 7.4 SSE 35 43 19 23 1013.0 1012.9 0.0
26/03:00am 24.2 18.8 12.8 49 6.6 SSE 33 39 18 21 1012.9 1012.8 0.0
26/02:30am 24.4 18.7 11.7 45 7.2 SSE 33 41 18 22 1012.8 1012.7 0.0
26/02:00am 24.5 19.0 11.8 45 7.2 SSE 32 39 17 21 1013.0 1012.9 0.0
26/01:30am 24.8 19.9 14.3 52 6.2 SSE 33 39 18 21 1013.3 1013.2 0.0
26/01:00am 25.2 22.1 16.6 59 5.3 S 28 35 15 19 1013.4 1013.3 0.0
26/12:30am 24.9 21.9 16.9 61 4.9 S 28 32 15 17 1013.6 1013.5 0.0
26/12:00am 24.8 22.8 18.3 67 4.1 S 26 30 14 16 1013.7 1013.6 0.0
 
Date/Time
CST
Temp
°C
App
Temp
°C
Dew
Point
Rel
Hum
%
Delta-T
°C
Wind Press
QNH
hPa
Press
MSL
hPa
Rain
since 9 am
mm
Dir
 
Spd
km/h
Gust
km/h
Spd
kts
Gust
kts
25/11:30pm 24.4 23.2 18.3 69 3.8 S 22 26 12 14 1013.9 1013.8 0.0
25/11:00pm 24.9 26.4 20.6 77 2.8 S 13 17 7 9 1013.8 1013.7 0.0
25/10:30pm 25.7 28.2 21.8 79 2.6 SE 11 13 6 7 1013.7 1013.6 0.0
25/10:00pm 25.7 26.9 20.0 71 3.7 ESE 13 15 7 8 1013.6 1013.5 0.0
25/09:30pm 25.8 26.5 19.7 69 3.9 ESE 15 17 8 9 1013.4 1013.3 0.0
25/09:00pm 25.8 26.4 18.7 65 4.5 ESE 13 15 7 8 1013.3 1013.2 0.0
25/08:30pm 25.9 26.4 18.3 63 4.8 ESE 13 15 7 8 1013.1 1013.0 0.0
25/08:00pm 26.2 26.4 17.6 59 5.4 E 13 15 7 8 1012.7 1012.6 0.0
25/07:30pm 26.5 26.2 17.3 57 5.8 ENE 15 17 8 9 1012.3 1012.2 0.0
25/07:00pm 26.8 25.7 16.4 53 6.4 ENE 17 19 9 10 1011.8 1011.7 0.0
25/06:30pm 27.1 25.8 15.8 50 6.9 ENE 17 22 9 12 1011.4 1011.3 0.0
25/06:00pm 27.7 25.6 14.7 45 7.9 ENE 19 24 10 13 1011.1 1011.0 0.0
25/05:30pm 28.4 26.2 15.0 44 8.2 ENE 20 26 11 14 1010.9 1010.8 0.0
25/05:00pm 29.3 27.6 15.8 44 8.3 ENE 19 22 10 12 1010.6 1010.5 0.0
25/04:30pm 29.9 28.3 16.0 43 8.6 E 19 24 10 13 1010.4 1010.3 0.0
25/04:00pm 30.4 28.4 14.9 39 9.5 E 19 24 10 13 1010.4 1010.3 0.0
25/03:30pm 30.9 28.7 14.9 37 9.8 ENE 20 24 11 13 1010.1 1010.0 0.0
25/03:00pm 30.8 28.6 14.4 36 10.0 ENE 19 24 10 13 1010.1 1010.0 0.0
25/02:30pm 31.2 28.6 13.9 35 10.5 ENE 20 28 11 15 1010.1 1010.0 0.0
25/02:00pm 31.3 29.0 14.0 35 10.5 ENE 19 24 10 13 1010.4 1010.3 0.0
25/01:30pm 31.3 29.8 15.3 38 9.9 ESE 17 20 9 11 1010.6 1010.5 0.0
25/01:00pm 30.8 28.0 13.1 34 10.5 ESE 20 24 11 13 1010.8 1010.7 0.0
25/12:30pm 30.8 27.6 13.1 34 10.6 ESE 22 26 12 14 1011.3 1011.2 0.0
25/12:00pm 30.5 27.5 13.7 35 10.1 ESE 22 28 12 15 1011.8 1011.7 0.0
25/11:30am 30.1 27.2 13.0 35 10.1 ESE 20 24 11 13 1012.3 1012.2 0.0
25/11:00am 29.4 27.1 11.9 34 10.2 ESE 15 19 8 10 1012.8 1012.7 0.0
25/10:30am 29.0 23.7 9.7 30 10.8 SE 28 33 15 18 1012.9 1012.8 0.0
25/10:00am 27.6 22.7 9.9 33 9.9 SE 26 32 14 17 1013.1 1013.0 0.0
25/09:30am 26.5 22.9 11.8 40 8.4 SSE 22 26 12 14 1013.1 1013.0 0.0
25/09:00am 25.5 20.9 9.7 37 8.7 SSE 24 28 13 15 1012.9 1012.8 0.0
25/08:30am 25.2 19.9 9.9 38 8.4 SSE 28 35 15 19 1013.1 1013.0 0.0
25/08:00am 25.4 19.6 9.3 36 8.8 SSE 30 35 16 19 1012.8 1012.7 0.0
25/07:30am 25.0 20.9 11.6 43 7.6 SSE 24 30 13 16 1012.5 1012.4 0.0
25/07:00am 24.3 22.3 15.5 58 5.3 S 20 26 11 14 1012.1 1012.0 0.0
25/06:30am 23.9 22.5 16.9 65 4.3 S 20 26 11 14 1011.6 1011.5 0.0
25/06:00am 23.8 22.2 16.6 64 4.4 S 20 28 11 15 1011.3 1011.2 0.0
25/05:30am 23.7 22.3 17.0 66 4.1 S 20 26 11 14 1011.0 1010.9 0.0
25/05:00am 23.8 21.7 17.1 66 4.1 S 24 28 13 15 1010.6 1010.5 0.0
25/04:30am 23.7 22.4 17.2 67 4.0 S 20 24 11 13 1010.7 1010.6 0.0
25/04:00am 23.7 22.5 17.4 68 3.9 S 20 24 11 13 1010.8 1010.7 0.0
25/03:30am 23.5 22.5 17.5 69 3.7 S 19 22 10 12 1010.9 1010.8 0.0
25/03:00am 23.6 22.7 18.3 72 3.3 S 20 22 11 12 1011.0 1010.9 0.0
25/02:30am 23.7 23.2 18.6 73 3.2 S 19 22 10 12 1011.0 1010.9 0.0
25/02:00am 23.9 24.0 19.2 75 3.0 SSW 17 20 9 11 1011.1 1011.0 0.0
25/01:30am 24.1 26.0 20.6 81 2.3 SSW 11 15 6 8 1011.1 1011.0 0.0
25/01:00am 24.1 26.2 20.2 79 2.5 SW 9 13 5 7 1011.3 1011.2 0.0
25/12:30am 23.3 25.7 20.1 82 2.1 WSW 7 9 4 5 1011.4 1011.3 0.0
25/12:00am 22.9 25.1 18.4 76 2.8 N 4 9 2 5 1011.5 1011.4 0.0
 
Date/Time
CST
Temp
°C
App
Temp
°C
Dew
Point
Rel
Hum
%
Delta-T
°C
Wind Press
QNH
hPa
Press
MSL
hPa
Rain
since 9 am
mm
Dir
 
Spd
km/h
Gust
km/h
Spd
kts
Gust
kts
24/11:30pm 23.1 26.3 18.8 77 2.7 CALM 0 0 0 0 1011.5 1011.4 0.0
24/11:00pm 23.5 26.3 17.9 71 3.5 CALM 0 0 0 0 1011.4 1011.3 0.0
24/10:30pm 24.5 27.7 18.9 71 3.6 CALM 0 4 0 2 1011.4 1011.3 0.0
24/10:00pm 25.0 26.3 17.2 62 4.8 NE 6 9 3 5 1011.4 1011.3 0.0
24/09:30pm 25.7 26.4 17.1 59 5.4 NE 9 11 5 6 1011.5 1011.4 0.0
24/09:00pm 26.0 26.3 17.1 58 5.5 NE 11 15 6 8 1011.8 1011.7 0.0
24/08:30pm 26.1 26.4 16.9 57 5.7 NE 11 15 6 8 1011.7 1011.6 0.0
24/08:00pm 26.3 25.9 16.3 54 6.2 ENE 13 19 7 10 1011.2 1011.1 0.0
24/07:30pm 26.4 25.3 15.4 50 6.7 NE 15 19 8 10 1010.7 1010.6 0.0
24/07:00pm 26.7 24.9 15.4 50 6.9 ENE 19 22 10 12 1010.3 1010.2 0.0
24/06:30pm 26.9 24.5 14.3 46 7.5 NE 20 26 11 14 1010.0 1009.9 0.0
24/06:00pm 27.2 24.6 14.9 47 7.4 NE 22 26 12 14 1009.7 1009.6 0.0
24/05:30pm 27.9 24.8 13.4 40 8.6 NE 22 30 12 16 1009.5 1009.4 0.0
24/05:00pm 28.7 25.7 13.8 40 8.9 NNE 22 28 12 15 1009.4 1009.3 0.0

Other Formats:

Comma delimited format used in spreadsheet applications
http://www.bom.gov.au/fwo/IDD60801/IDD60801.94248.axf

JavaScript Object Notation format (JSON) in row-major order
http://www.bom.gov.au/fwo/IDD60801/IDD60801.94248.json